createdAt,value
2023-03-27T00:01:26.040Z,98080.06
2023-03-27T00:03:53.743Z,98086.56
2023-03-27T00:06:21.326Z,98094.88
2023-03-27T00:08:51.415Z,98083.13
2023-03-27T00:11:19.646Z,98095.91
2023-03-27T00:13:49.439Z,98107.69
2023-03-27T00:16:17.528Z,98109.47
2023-03-27T00:18:45.232Z,98114.16
2023-03-27T00:21:12.121Z,98115.88
2023-03-27T00:23:38.834Z,98122.94
2023-03-27T00:26:05.845Z,98125.38
2023-03-27T00:28:32.887Z,98128.38
2023-03-27T00:31:00.446Z,98125.91
2023-03-27T00:33:27.979Z,98132.78
2023-03-27T00:35:54.815Z,98138.97
2023-03-27T00:38:21.916Z,98147.84
2023-03-27T00:40:51.052Z,98153.81
2023-03-27T00:43:23.870Z,98150.63
2023-03-27T00:45:56.871Z,98155.97
2023-03-27T00:48:25.816Z,98161.28
2023-03-27T00:50:53.925Z,98166.28
2023-03-27T00:53:26.949Z,98166.41
2023-03-27T00:55:56.728Z,98169.28
2023-03-27T00:58:29.558Z,98171.16
2023-03-27T01:00:57.713Z,98174.50
2023-03-27T01:03:28.219Z,98174.25
2023-03-27T01:05:56.226Z,98180.63
2023-03-27T01:08:24.786Z,98180.34
2023-03-27T01:11:21.026Z,98183.84
2023-03-27T01:14:01.206Z,98190.47
2023-03-27T01:17:02.124Z,98191.19
2023-03-27T01:20:10.972Z,98194.84
2023-03-27T01:22:52.919Z,98204.19
2023-03-27T01:25:38.522Z,98208.25
2023-03-27T01:28:24.244Z,98204.19
2023-03-27T01:30:54.341Z,98209.78
2023-03-27T01:33:35.840Z,98217.31
2023-03-27T01:36:50.918Z,98223.84
2023-03-27T01:39:31.846Z,98225.03
2023-03-27T01:42:38.589Z,98230.69
2023-03-27T01:45:28.716Z,98244.47
2023-03-27T01:48:11.292Z,98235.41
2023-03-27T01:50:46.202Z,98247.44
2023-03-27T01:53:30.944Z,98257.94
2023-03-27T01:56:07.381Z,98256.66
2023-03-27T01:58:40.716Z,98284.03
2023-03-27T02:01:09.321Z,98276.47
2023-03-27T02:03:40.401Z,98296.78
2023-03-27T02:06:11.774Z,98288.41
2023-03-27T02:09:09.007Z,98291.81
2023-03-27T02:11:44.108Z,98309.53
2023-03-27T02:14:19.811Z,98304.78
2023-03-27T02:16:51.726Z,98307.06
2023-03-27T02:19:23.585Z,98310.47
2023-03-27T02:21:50.296Z,98302.44
2023-03-27T02:24:18.113Z,98309.16
2023-03-27T02:26:46.017Z,98311.41
2023-03-27T02:29:32.144Z,98321.69
2023-03-27T02:32:18.551Z,98325.41
2023-03-27T02:35:23.189Z,98347.03
2023-03-27T02:37:59.766Z,98341.88
2023-03-27T02:40:52.422Z,98363.28
2023-03-27T02:43:29.639Z,98371.09
2023-03-27T02:46:18.921Z,98379.28
2023-03-27T02:48:48.825Z,98384.09
2023-03-27T02:51:36.702Z,98377.34
2023-03-27T02:54:06.061Z,98387.13
2023-03-27T02:56:38.876Z,98393.03
2023-03-27T02:59:16.458Z,98399.69
2023-03-27T03:01:45.696Z,98401.28
2023-03-27T03:04:18.469Z,98410.41
2023-03-27T03:06:45.275Z,98416.44
2023-03-27T03:09:15.197Z,98422.53
2023-03-27T03:11:51.738Z,98429.84
2023-03-27T03:14:25.122Z,98438.22
2023-03-27T03:16:52.039Z,98445.41
2023-03-27T03:19:18.808Z,98451.34
2023-03-27T03:21:49.948Z,98463.41
2023-03-27T03:24:17.897Z,98471.47
2023-03-27T03:26:50.443Z,98476.28
2023-03-27T03:29:21.536Z,98487.34
2023-03-27T03:31:49.979Z,98490.81
2023-03-27T03:34:19.075Z,98488.47
2023-03-27T03:36:50.112Z,98495.91
2023-03-27T03:39:18.539Z,98497.25
2023-03-27T03:41:45.602Z,98499.38
2023-03-27T03:44:12.539Z,98506.25
2023-03-27T03:46:39.504Z,98522.78
2023-03-27T03:49:07.128Z,98527.41
2023-03-27T03:51:35.640Z,98534.66
2023-03-27T03:54:03.096Z,98537.88
2023-03-27T03:56:30.871Z,98532.34
2023-03-27T03:58:58.130Z,98549.56
2023-03-27T04:01:26.442Z,98545.34
2023-03-27T04:03:53.360Z,98553.22
2023-03-27T04:06:25.830Z,98558.13
2023-03-27T04:08:53.437Z,98568.78
2023-03-27T04:11:20.594Z,98567.97
2023-03-27T04:13:47.393Z,98574.81
2023-03-27T04:16:14.139Z,98581.66
2023-03-27T04:18:41.714Z,98583.31
2023-03-27T04:21:15.007Z,98584.78
2023-03-27T04:23:42.616Z,98596.38
2023-03-27T04:26:12.607Z,98606.56
2023-03-27T04:28:41.178Z,98604.69
2023-03-27T04:31:11.519Z,98611.63
2023-03-27T04:33:39.956Z,98611.94
2023-03-27T04:36:08.281Z,98623.44
2023-03-27T04:38:37.201Z,98635.16
2023-03-27T04:41:05.065Z,98634.34
2023-03-27T04:43:31.997Z,98639.00
2023-03-27T04:45:59.058Z,98647.31
2023-03-27T04:48:26.938Z,98659.66
2023-03-27T04:50:53.622Z,98659.72
2023-03-27T04:53:23.729Z,98661.47
2023-03-27T04:55:53.348Z,98667.16
2023-03-27T04:58:20.099Z,98668.31
2023-03-27T05:00:50.868Z,98673.16
2023-03-27T05:03:21.185Z,98669.34
2023-03-27T05:05:49.960Z,98681.69
2023-03-27T05:08:20.902Z,98687.72
2023-03-27T05:10:47.857Z,98697.31
2023-03-27T05:13:14.821Z,98683.59
2023-03-27T05:15:42.061Z,98695.00
2023-03-27T05:18:09.457Z,98688.91
2023-03-27T05:20:36.901Z,98690.47
2023-03-27T05:23:04.354Z,98701.66
2023-03-27T05:25:32.970Z,98709.38
2023-03-27T05:28:01.011Z,98716.25
2023-03-27T05:30:28.849Z,98722.78
2023-03-27T05:32:59.659Z,98728.22
2023-03-27T05:35:28.722Z,98736.41
2023-03-27T05:37:57.554Z,98729.56
2023-03-27T05:40:25.872Z,98739.41
2023-03-27T05:42:53.970Z,98739.72
2023-03-27T05:45:21.728Z,98741.50
2023-03-27T05:47:56.308Z,98742.31
2023-03-27T05:50:25.664Z,98758.22
2023-03-27T05:52:57.082Z,98760.25
2023-03-27T05:55:27.427Z,98762.38
2023-03-27T05:57:55.124Z,98765.72
2023-03-27T06:00:28.080Z,98764.41
2023-03-27T06:02:56.759Z,98763.81
2023-03-27T06:05:24.203Z,98767.28
2023-03-27T06:07:52.499Z,98767.44
2023-03-27T06:10:21.025Z,98771.69
2023-03-27T06:12:49.190Z,98780.84
2023-03-27T06:15:16.301Z,98776.88
2023-03-27T06:17:48.182Z,98794.84
2023-03-27T06:20:15.755Z,98797.44
2023-03-27T06:22:45.578Z,98796.00
2023-03-27T06:25:12.602Z,98809.28
2023-03-27T06:27:42.342Z,98808.97
2023-03-27T06:30:11.422Z,98816.69
2023-03-27T06:32:43.930Z,98826.22
2023-03-27T06:35:10.745Z,98824.16
2023-03-27T06:37:38.577Z,98830.47
2023-03-27T06:40:10.170Z,98831.31
2023-03-27T06:42:37.386Z,98835.06
2023-03-27T06:45:05.704Z,98839.00
2023-03-27T06:47:44.420Z,98837.34
2023-03-27T06:50:24.144Z,98850.34
2023-03-27T06:52:51.161Z,98848.78
2023-03-27T06:55:20.539Z,98848.38
2023-03-27T06:57:49.264Z,98851.91
2023-03-27T07:00:22.936Z,98860.84
2023-03-27T07:02:54.035Z,98862.72
2023-03-27T07:05:21.396Z,98864.47
2023-03-27T07:07:49.419Z,98868.63
2023-03-27T07:10:16.932Z,98873.91
2023-03-27T07:12:48.461Z,98880.91
2023-03-27T07:15:15.709Z,98882.22
2023-03-27T07:17:49.108Z,98894.41
2023-03-27T07:20:17.380Z,98893.16
2023-03-27T07:22:54.986Z,98902.41
2023-03-27T07:25:28.160Z,98904.91
2023-03-27T07:28:00.559Z,98910.50
2023-03-27T07:30:28.861Z,98917.16
2023-03-27T07:32:55.908Z,98918.50
2023-03-27T07:35:22.999Z,98921.63
2023-03-27T07:37:50.060Z,98916.34
2023-03-27T07:40:29.546Z,98927.34
2023-03-27T07:43:07.795Z,98922.34
2023-03-27T07:45:35.812Z,98917.94
2023-03-27T07:48:16.811Z,98918.56
2023-03-27T07:50:45.636Z,98914.16
2023-03-27T07:53:34.021Z,98912.81
2023-03-27T07:56:01.317Z,98927.94
2023-03-27T07:58:28.246Z,98923.28
2023-03-27T08:01:03.458Z,98943.59
2023-03-27T08:03:31.710Z,98940.34
2023-03-27T08:06:00.104Z,98944.06
2023-03-27T08:08:29.727Z,98948.13
2023-03-27T08:10:57.785Z,98953.63
2023-03-27T08:13:25.331Z,98955.50
2023-03-27T08:15:53.138Z,98951.47
2023-03-27T08:18:19.926Z,98960.09
2023-03-27T08:20:54.803Z,98963.69
2023-03-27T08:23:28.910Z,98964.63
2023-03-27T08:26:02.994Z,98975.59
2023-03-27T08:28:35.274Z,98974.06
2023-03-27T08:31:12.677Z,98975.72
2023-03-27T08:33:40.300Z,98986.25
2023-03-27T08:36:10.282Z,98988.47
2023-03-27T08:38:40.266Z,98985.81
2023-03-27T08:41:20.141Z,98982.78
2023-03-27T08:43:47.592Z,98996.34
2023-03-27T08:46:26.407Z,98993.13
2023-03-27T08:49:20.910Z,99000.91
2023-03-27T08:51:59.449Z,98999.63
2023-03-27T08:54:31.396Z,98999.53
2023-03-27T08:56:59.925Z,99002.81
2023-03-27T08:59:31.760Z,98997.25
2023-03-27T09:02:31.187Z,99000.03
2023-03-27T09:05:10.278Z,98995.97
2023-03-27T09:08:10.671Z,98998.53
2023-03-27T09:10:46.290Z,99008.09
2023-03-27T09:13:35.425Z,99020.06
2023-03-27T09:16:13.853Z,99008.09
2023-03-27T09:19:07.379Z,99019.28
2023-03-27T09:21:50.844Z,99015.22
2023-03-27T09:25:09.409Z,99013.63
2023-03-27T09:27:40.046Z,99006.78
2023-03-27T09:30:23.894Z,99022.94
2023-03-27T09:32:58.763Z,99014.56
2023-03-27T09:35:27.048Z,98997.00
2023-03-27T09:38:02.419Z,99011.19
2023-03-27T09:40:44.984Z,99022.06
2023-03-27T09:43:18.343Z,99023.28
2023-03-27T09:45:48.221Z,99022.03
2023-03-27T09:48:58.799Z,99023.53
2023-03-27T09:51:51.838Z,99028.78
2023-03-27T09:54:21.642Z,99035.19
2023-03-27T09:56:59.170Z,99030.88
2023-03-27T09:59:33.711Z,99030.41
2023-03-27T10:02:11.180Z,99021.75
2023-03-27T10:04:39.142Z,99026.72
2023-03-27T10:07:25.030Z,99013.53
2023-03-27T10:10:34.922Z,99021.34
2023-03-27T10:13:04.898Z,99029.41
2023-03-27T10:15:39.114Z,99040.03
2023-03-27T10:18:07.716Z,99029.56
2023-03-27T10:20:41.799Z,99043.25
2023-03-27T10:23:09.907Z,99038.38
2023-03-27T10:25:39.694Z,99043.84
2023-03-27T10:28:22.991Z,99044.03
2023-03-27T10:31:15.050Z,99048.66
2023-03-27T10:33:42.737Z,99051.44
2023-03-27T10:36:13.751Z,99048.00
2023-03-27T10:38:43.358Z,99046.06
2023-03-27T10:41:29.077Z,99049.22
2023-03-27T10:43:59.649Z,99056.09
2023-03-27T10:46:30.091Z,99074.16
2023-03-27T10:49:26.510Z,99064.69
2023-03-27T10:52:26.394Z,99064.75
2023-03-27T10:55:09.332Z,99063.06
2023-03-27T10:57:38.671Z,99071.41
2023-03-27T11:00:35.256Z,99071.88
2023-03-27T11:03:25.311Z,99075.78
2023-03-27T11:05:55.180Z,99060.88
2023-03-27T11:08:53.483Z,99060.38
2023-03-27T11:11:26.362Z,99062.41
2023-03-27T11:13:55.498Z,99061.91
2023-03-27T11:16:49.503Z,99069.13
2023-03-27T11:19:32.263Z,99080.19
2023-03-27T11:22:35.264Z,99083.84
2023-03-27T11:25:31.267Z,99069.75
2023-03-27T11:28:43.968Z,99077.50
2023-03-27T11:31:47.559Z,99094.00
2023-03-27T11:34:45.806Z,99106.03
2023-03-27T11:37:20.068Z,99091.97
2023-03-27T11:39:49.770Z,99092.03
2023-03-27T11:42:23.681Z,99089.34
2023-03-27T11:44:52.393Z,99090.00
2023-03-27T11:48:11.135Z,99092.16
2023-03-27T11:51:12.667Z,99092.41
2023-03-27T11:53:58.641Z,99099.28
2023-03-27T11:56:32.506Z,99100.03
2023-03-27T11:59:31.743Z,99093.47
2023-03-27T12:02:39.279Z,99110.75
2023-03-27T12:05:33.523Z,99112.75
2023-03-27T12:08:22.764Z,99134.81
2023-03-27T12:10:51.374Z,99152.03
2023-03-27T12:14:02.272Z,99154.53
2023-03-27T12:16:59.440Z,99182.94
2023-03-27T12:20:06.290Z,99155.94
2023-03-27T12:23:17.564Z,99146.44
2023-03-27T12:26:13.602Z,99147.38
2023-03-27T12:28:42.663Z,99141.38
2023-03-27T12:31:49.606Z,99143.94
2023-03-27T12:34:32.351Z,99142.53
2023-03-27T12:36:59.758Z,99124.25
2023-03-27T12:39:27.701Z,99121.41
2023-03-27T12:41:54.458Z,99121.59
2023-03-27T12:44:29.911Z,99114.22
2023-03-27T12:47:24.769Z,99126.53
2023-03-27T12:50:14.633Z,99120.16
2023-03-27T12:52:46.050Z,99112.97
2023-03-27T12:55:39.510Z,99109.16
2023-03-27T12:58:06.527Z,99109.38
2023-03-27T13:00:33.522Z,99109.75
2023-03-27T13:03:25.178Z,99110.41
2023-03-27T13:06:07.447Z,99108.66
2023-03-27T13:08:53.913Z,99106.63
2023-03-27T13:11:48.505Z,99105.50
2023-03-27T13:15:17.379Z,99098.25
2023-03-27T13:18:32.626Z,99099.88
2023-03-27T13:21:30.682Z,99112.44
2023-03-27T13:24:37.481Z,99104.97
2023-03-27T13:27:34.937Z,99119.56
2023-03-27T13:30:05.096Z,99105.75
2023-03-27T13:32:43.429Z,99120.69
2023-03-27T13:35:34.284Z,99123.25
2023-03-27T13:38:01.367Z,99123.75
2023-03-27T13:40:34.980Z,99122.41
2023-03-27T13:43:12.924Z,99122.09
2023-03-27T13:45:48.667Z,99106.03
2023-03-27T13:48:37.387Z,99107.19
2023-03-27T13:51:17.957Z,99097.84
2023-03-27T13:54:13.781Z,99100.28
2023-03-27T13:57:04.901Z,99103.03
2023-03-27T13:59:54.313Z,99107.22
2023-03-27T14:02:47.421Z,99099.94
2023-03-27T14:06:11.376Z,99095.84
2023-03-27T14:09:06.267Z,99097.50
2023-03-27T14:12:07.050Z,99099.88
2023-03-27T14:14:47.629Z,99095.81
2023-03-27T14:17:32.459Z,99096.66
2023-03-27T14:20:22.424Z,99115.31
2023-03-27T14:22:57.204Z,99126.47
2023-03-27T14:25:34.440Z,99150.19
2023-03-27T14:28:01.783Z,99142.94
2023-03-27T14:30:45.424Z,99144.47
2023-03-27T14:33:22.676Z,99149.81
2023-03-27T14:36:17.129Z,99154.97
2023-03-27T14:38:44.904Z,99159.25
2023-03-27T14:41:20.266Z,99166.47
2023-03-27T14:43:49.244Z,99170.34
2023-03-27T14:46:18.967Z,99172.19
2023-03-27T14:48:49.283Z,99165.19
2023-03-27T14:51:21.684Z,99157.63
2023-03-27T14:53:50.211Z,99159.91
2023-03-27T14:56:38.462Z,99174.19
2023-03-27T14:59:15.545Z,99168.88
2023-03-27T15:01:45.756Z,99166.97
2023-03-27T15:04:14.030Z,99166.78
2023-03-27T15:06:42.260Z,99159.25
2023-03-27T15:09:19.525Z,99158.06
2023-03-27T15:11:55.180Z,99166.00
2023-03-27T15:14:27.705Z,99169.78
2023-03-27T15:17:07.130Z,99174.88
2023-03-27T15:19:43.556Z,99173.84
2023-03-27T15:22:36.545Z,99174.72
2023-03-27T15:25:07.690Z,99176.19
2023-03-27T15:27:36.352Z,99180.25
2023-03-27T15:30:08.406Z,99182.28
2023-03-27T15:32:44.867Z,99185.66
2023-03-27T15:35:29.228Z,99182.59
2023-03-27T15:37:57.628Z,99180.00
2023-03-27T15:40:41.067Z,99192.97
2023-03-27T15:43:22.148Z,99197.84
2023-03-27T15:46:11.144Z,99212.94
2023-03-27T15:48:41.587Z,99210.53
2023-03-27T15:51:27.504Z,99223.19
2023-03-27T15:54:18.516Z,99211.09
2023-03-27T15:57:10.966Z,99210.69
2023-03-27T15:59:52.212Z,99211.75
2023-03-27T16:02:23.034Z,99206.91
2023-03-27T16:04:58.079Z,99212.34
2023-03-27T16:07:46.517Z,99212.88
2023-03-27T16:10:15.722Z,99225.06
2023-03-27T16:12:57.354Z,99220.47
2023-03-27T16:15:38.976Z,99222.13
2023-03-27T16:18:19.026Z,99236.84
2023-03-27T16:20:46.184Z,99247.19
2023-03-27T16:23:12.983Z,99251.97
2023-03-27T16:25:42.293Z,99260.44
2023-03-27T16:28:10.169Z,99267.81
2023-03-27T16:33:36.960Z,99317.78
2023-03-27T16:36:06.115Z,99325.88
2023-03-27T16:38:35.662Z,99305.59
2023-03-27T16:41:02.765Z,99297.31
2023-03-27T16:43:29.541Z,99291.22
2023-03-27T16:45:57.784Z,99282.41
2023-03-27T16:48:25.019Z,99294.72
2023-03-27T16:50:52.297Z,99297.09
2023-03-27T16:53:19.145Z,99295.81
2023-03-27T16:55:46.695Z,99295.66
2023-03-27T16:58:13.940Z,99291.25
2023-03-27T17:00:41.128Z,99292.84
2023-03-27T17:03:08.743Z,99307.69
2023-03-27T17:05:36.522Z,99297.00
2023-03-27T17:08:06.032Z,99309.84
2023-03-27T17:10:35.512Z,99315.50
2023-03-27T17:13:03.181Z,99314.09
2023-03-27T17:15:39.290Z,99322.75
2023-03-27T17:18:09.151Z,99320.13
2023-03-27T17:20:37.977Z,99318.47
2023-03-27T17:23:08.016Z,99331.72
2023-03-27T17:25:46.510Z,99341.00
2023-03-27T17:28:22.046Z,99341.41
2023-03-27T17:31:00.922Z,99352.16
2023-03-27T17:33:34.779Z,99349.66
2023-03-27T17:36:08.993Z,99351.13
2023-03-27T17:38:42.511Z,99349.16
2023-03-27T17:41:17.542Z,99355.00
2023-03-27T17:43:46.713Z,99361.81
2023-03-27T17:46:14.687Z,99372.19
2023-03-27T17:48:43.400Z,99370.41
2023-03-27T17:51:11.235Z,99390.75
2023-03-27T17:53:43.521Z,99399.31
2023-03-27T17:56:13.381Z,99388.34
2023-03-27T17:58:40.182Z,99391.31
2023-03-27T18:01:18.610Z,99407.28
2023-03-27T18:03:46.621Z,99401.44
2023-03-27T18:06:14.987Z,99407.66
2023-03-27T18:08:42.798Z,99414.78
2023-03-27T18:11:12.474Z,99413.13
2023-03-27T18:13:39.484Z,99413.94
2023-03-27T18:16:11.011Z,99411.91
2023-03-27T18:18:39.369Z,99417.38
2023-03-27T18:21:07.110Z,99417.88
2023-03-27T18:23:35.322Z,99417.31
2023-03-27T18:26:06.721Z,99410.09
2023-03-27T18:28:34.218Z,99409.00
2023-03-27T18:31:04.106Z,99418.81
2023-03-27T18:33:31.366Z,99417.03
2023-03-27T18:35:58.756Z,99416.97
2023-03-27T18:38:27.215Z,99420.13
2023-03-27T18:40:56.456Z,99421.13
2023-03-27T18:43:24.012Z,99422.50
2023-03-27T18:45:58.970Z,99430.22
2023-03-27T18:48:26.690Z,99434.69
2023-03-27T18:50:58.287Z,99435.88
2023-03-27T18:53:25.714Z,99439.41
2023-03-27T18:55:54.111Z,99448.13
2023-03-27T18:58:22.022Z,99440.78
2023-03-27T19:00:49.015Z,99445.97
2023-03-27T19:03:20.310Z,99433.63
2023-03-27T19:05:48.269Z,99426.00
2023-03-27T19:08:16.011Z,99431.41
2023-03-27T19:10:43.115Z,99429.44
2023-03-27T19:13:10.341Z,99431.63
2023-03-27T19:15:40.613Z,99429.09
2023-03-27T19:18:07.913Z,99432.91
2023-03-27T19:20:35.086Z,99426.03
2023-03-27T19:23:02.014Z,99431.88
2023-03-27T19:25:34.046Z,99435.78
2023-03-27T19:28:01.878Z,99444.22
2023-03-27T19:30:29.320Z,99439.34
2023-03-27T19:32:58.393Z,99442.94
2023-03-27T19:35:26.163Z,99437.66
2023-03-27T19:37:54.554Z,99443.63
2023-03-27T19:40:21.719Z,99442.78
2023-03-27T19:42:48.626Z,99438.69
2023-03-27T19:45:15.673Z,99442.28
2023-03-27T19:47:42.735Z,99446.06
2023-03-27T19:50:09.806Z,99441.03
2023-03-27T19:52:36.917Z,99442.25
2023-03-27T19:55:04.271Z,99446.19
2023-03-27T19:57:31.129Z,99450.34
2023-03-27T19:59:57.907Z,99451.59
2023-03-27T20:02:24.968Z,99450.44
2023-03-27T20:04:51.984Z,99457.03
2023-03-27T20:07:18.725Z,99453.44
2023-03-27T20:09:45.710Z,99458.94
2023-03-27T20:12:12.759Z,99466.66
2023-03-27T20:14:39.786Z,99462.97
2023-03-27T20:17:12.250Z,99473.50
2023-03-27T20:19:49.118Z,99468.66
2023-03-27T20:22:20.975Z,99468.31
2023-03-27T20:24:48.632Z,99472.69
2023-03-27T20:27:20.341Z,99472.00
2023-03-27T20:29:48.752Z,99482.53
2023-03-27T20:32:15.740Z,99471.50
2023-03-27T20:34:42.899Z,99482.06
2023-03-27T20:37:12.228Z,99470.75
2023-03-27T20:39:44.891Z,99477.50
2023-03-27T20:42:17.158Z,99475.69
2023-03-27T20:44:45.381Z,99482.28
2023-03-27T20:47:13.098Z,99470.31
2023-03-27T20:49:41.745Z,99477.63
2023-03-27T20:52:14.589Z,99474.44
2023-03-27T20:54:41.682Z,99478.53
2023-03-27T20:57:08.695Z,99480.69
2023-03-27T20:59:35.883Z,99479.84
2023-03-27T21:02:03.829Z,99481.19
2023-03-27T21:04:31.782Z,99491.41
2023-03-27T21:06:58.806Z,99494.50
2023-03-27T21:09:27.212Z,99494.72
2023-03-27T21:11:55.430Z,99497.06
2023-03-27T21:14:22.586Z,99504.22
2023-03-27T21:16:49.433Z,99506.53
2023-03-27T21:19:17.398Z,99499.38
2023-03-27T21:21:44.475Z,99502.22
2023-03-27T21:24:11.479Z,99506.03
2023-03-27T21:26:38.306Z,99500.47
2023-03-27T21:29:05.343Z,99497.56
2023-03-27T21:31:32.229Z,99501.34
2023-03-27T21:33:59.173Z,99508.91
2023-03-27T21:36:28.802Z,99509.25
2023-03-27T21:38:59.366Z,99517.19
2023-03-27T21:41:26.505Z,99516.03
2023-03-27T21:43:53.292Z,99513.50
2023-03-27T21:46:20.181Z,99516.03
2023-03-27T21:48:50.593Z,99511.97
2023-03-27T21:51:17.829Z,99511.81
2023-03-27T21:53:46.295Z,99517.09
2023-03-27T21:56:14.005Z,99512.31
2023-03-27T21:58:40.759Z,99517.91
2023-03-27T22:01:07.766Z,99519.06
2023-03-27T22:03:34.531Z,99523.03
2023-03-27T22:06:11.790Z,99515.88
2023-03-27T22:08:41.577Z,99526.25
2023-03-27T22:11:08.918Z,99527.59
2023-03-27T22:13:36.858Z,99531.41
2023-03-27T22:16:11.156Z,99527.44
2023-03-27T22:18:37.969Z,99530.97
2023-03-27T22:21:19.552Z,99530.50
2023-03-27T22:23:46.978Z,99541.59
2023-03-27T22:26:13.851Z,99550.63
2023-03-27T22:28:40.696Z,99550.63
2023-03-27T22:31:07.997Z,99549.38
2023-03-27T22:33:35.762Z,99554.13
2023-03-27T22:36:03.310Z,99540.78
2023-03-27T22:38:31.765Z,99557.56
2023-03-27T22:40:59.157Z,99550.91
2023-03-27T22:43:28.561Z,99552.28
2023-03-27T22:45:55.691Z,99552.50
2023-03-27T22:48:22.515Z,99558.22
2023-03-27T22:50:56.326Z,99557.22
2023-03-27T22:53:24.365Z,99563.72
2023-03-27T22:55:52.624Z,99567.00
2023-03-27T22:58:19.994Z,99570.28
2023-03-27T23:00:48.234Z,99568.22
2023-03-27T23:03:16.073Z,99574.31
2023-03-27T23:05:45.089Z,99575.75
2023-03-27T23:08:11.838Z,99574.22
2023-03-27T23:10:38.755Z,99570.34
2023-03-27T23:13:05.848Z,99577.44
2023-03-27T23:15:32.947Z,99582.78
2023-03-27T23:17:59.669Z,99580.03
2023-03-27T23:20:27.598Z,99587.78
2023-03-27T23:22:54.622Z,99594.03
2023-03-27T23:25:21.880Z,99588.09
2023-03-27T23:27:48.688Z,99593.28
2023-03-27T23:30:15.666Z,99593.16
2023-03-27T23:32:42.424Z,99594.22
2023-03-27T23:35:12.298Z,99596.50
2023-03-27T23:37:39.036Z,99594.97
2023-03-27T23:40:07.206Z,99605.41
2023-03-27T23:42:33.912Z,99601.66
2023-03-27T23:45:01.212Z,99613.72
2023-03-27T23:47:28.086Z,99613.78
2023-03-27T23:49:54.801Z,99605.13
2023-03-27T23:52:21.538Z,99598.47
2023-03-27T23:54:48.275Z,99605.50
2023-03-27T23:57:15.063Z,99608.66
2023-03-27T23:59:42.891Z,99613.84
